createdAt,value
2022-08-08T00:00:52.464Z,3.35
2022-08-08T00:03:32.943Z,3.47
2022-08-08T00:06:16.605Z,3.10
2022-08-08T00:09:36.014Z,3.40
2022-08-08T00:12:10.502Z,3.17
2022-08-08T00:14:59.331Z,3.30
2022-08-08T00:18:03.604Z,3.45
2022-08-08T00:20:56.210Z,3.40
2022-08-08T00:23:42.925Z,3.67
2022-08-08T00:26:26.325Z,3.60
2022-08-08T00:29:12.617Z,3.38
2022-08-08T00:32:14.953Z,3.65
2022-08-08T00:35:18.474Z,3.72
2022-08-08T00:38:04.331Z,3.50
2022-08-08T00:41:12.219Z,3.72
2022-08-08T00:43:41.511Z,3.10
2022-08-08T00:46:32.165Z,3.53
2022-08-08T00:49:39.331Z,3.45
2022-08-08T00:52:48.924Z,3.22
2022-08-08T00:55:54.040Z,4.20
2022-08-08T00:59:03.133Z,3.88
2022-08-08T01:01:55.550Z,3.83
2022-08-08T01:05:04.103Z,3.30
2022-08-08T01:07:55.557Z,3.88
2022-08-08T01:10:42.760Z,3.35
2022-08-08T01:13:44.031Z,4.20
2022-08-08T01:16:47.568Z,3.50
2022-08-08T01:20:01.709Z,3.80
2022-08-08T01:22:43.212Z,3.80
2022-08-08T01:25:40.975Z,4.07
2022-08-08T01:28:27.909Z,3.60
2022-08-08T01:32:15.258Z,3.78
2022-08-08T01:35:16.598Z,3.72
2022-08-08T01:38:14.058Z,3.63
2022-08-08T01:40:56.493Z,3.90
2022-08-08T01:43:51.084Z,4.40
2022-08-08T01:46:42.520Z,4.13
2022-08-08T01:49:22.850Z,4.15
2022-08-08T01:53:06.527Z,3.65
2022-08-08T01:56:26.279Z,4.38
2022-08-08T01:58:38.219Z,3.58
2022-08-08T02:01:05.401Z,4.30
2022-08-08T02:03:58.159Z,4.18
2022-08-08T02:06:57.018Z,4.28
2022-08-08T02:10:04.054Z,4.05
2022-08-08T02:13:05.284Z,4.53
2022-08-08T02:15:38.504Z,4.25
2022-08-08T02:18:27.224Z,3.92
2022-08-08T02:21:41.815Z,4.18
2022-08-08T02:24:29.734Z,3.90
2022-08-08T02:27:10.077Z,4.50
2022-08-08T02:29:58.879Z,4.13
2022-08-08T02:32:40.117Z,4.75
2022-08-08T02:35:28.238Z,4.20
2022-08-08T02:37:58.155Z,4.07
2022-08-08T02:41:03.436Z,3.97
2022-08-08T02:44:38.767Z,4.20
2022-08-08T02:47:16.777Z,5.40
2022-08-08T02:50:21.088Z,4.43
2022-08-08T02:53:04.611Z,4.90
2022-08-08T02:55:59.932Z,4.35
2022-08-08T02:58:51.443Z,4.10
2022-08-08T03:01:47.579Z,4.57
2022-08-08T03:05:09.427Z,4.75
2022-08-08T03:07:58.082Z,4.00
2022-08-08T03:10:44.264Z,5.22
2022-08-08T03:13:34.057Z,4.35
2022-08-08T03:16:34.509Z,4.72
2022-08-08T03:19:19.937Z,5.28
2022-08-08T03:21:58.717Z,4.55
2022-08-08T03:24:27.157Z,5.18
2022-08-08T03:27:27.128Z,4.50
2022-08-08T03:30:01.907Z,4.97
2022-08-08T03:32:52.426Z,4.40
2022-08-08T03:35:25.944Z,4.75
2022-08-08T03:38:56.152Z,4.93
2022-08-08T03:40:54.397Z,4.32
2022-08-08T03:43:21.175Z,5.00
2022-08-08T03:46:07.442Z,6.03
2022-08-08T03:49:09.739Z,5.00
2022-08-08T03:51:40.113Z,5.53
2022-08-08T03:54:08.562Z,5.43
2022-08-08T03:56:35.274Z,4.60
2022-08-08T03:59:02.311Z,5.35
2022-08-08T04:02:12.344Z,5.00
2022-08-08T04:04:30.937Z,5.43
2022-08-08T04:07:03.451Z,4.82
2022-08-08T04:09:58.864Z,5.45
2022-08-08T04:12:16.353Z,5.03
2022-08-08T04:14:45.160Z,5.47
2022-08-08T04:17:22.521Z,5.85
2022-08-08T04:19:58.701Z,5.50
2022-08-08T04:22:29.712Z,6.25
2022-08-08T04:24:56.966Z,6.03
2022-08-08T04:28:02.376Z,5.38
2022-08-08T04:30:17.194Z,5.47
2022-08-08T04:32:47.868Z,5.13
2022-08-08T04:35:17.266Z,5.72
2022-08-08T04:37:43.739Z,5.78
2022-08-08T04:40:12.744Z,5.25
2022-08-08T04:42:55.932Z,6.07
2022-08-08T04:45:29.869Z,5.93
2022-08-08T04:48:00.161Z,5.43
2022-08-08T04:50:34.159Z,5.85
2022-08-08T04:53:14.340Z,6.00
2022-08-08T04:55:55.943Z,5.68
2022-08-08T04:58:23.562Z,5.35
2022-08-08T05:00:50.254Z,6.10
2022-08-08T05:04:07.609Z,6.07
2022-08-08T05:06:13.019Z,6.07
2022-08-08T05:08:41.802Z,6.20
2022-08-08T05:11:08.511Z,6.10
2022-08-08T05:13:36.801Z,5.93
2022-08-08T05:16:53.189Z,5.55
2022-08-08T05:20:12.763Z,6.20
2022-08-08T05:22:00.506Z,6.03
2022-08-08T05:24:27.357Z,5.78
2022-08-08T05:26:53.818Z,6.53
2022-08-08T05:29:24.049Z,6.13
2022-08-08T05:32:04.888Z,6.82
2022-08-08T05:34:42.359Z,6.88
2022-08-08T05:37:17.348Z,7.90
2022-08-08T05:39:55.072Z,7.68
2022-08-08T05:42:38.699Z,7.22
2022-08-08T05:45:24.822Z,6.78
2022-08-08T05:48:00.717Z,7.90
2022-08-08T05:50:30.286Z,7.15
2022-08-08T05:53:54.150Z,7.65
2022-08-08T05:56:09.746Z,7.57
2022-08-08T05:58:35.006Z,8.15
2022-08-08T06:01:04.919Z,7.30
2022-08-08T06:03:32.140Z,8.48
2022-08-08T06:06:06.438Z,8.02
2022-08-08T06:08:53.373Z,8.35
2022-08-08T06:11:22.454Z,8.65
2022-08-08T06:13:55.100Z,7.97
2022-08-08T06:16:27.441Z,7.88
2022-08-08T06:19:00.357Z,7.93
2022-08-08T06:21:48.563Z,7.72
2022-08-08T06:24:22.956Z,8.52
2022-08-08T06:27:04.143Z,8.10
2022-08-08T06:29:59.208Z,8.43
2022-08-08T06:32:31.704Z,7.90
2022-08-08T06:36:06.536Z,8.18
2022-08-08T06:37:56.074Z,8.68
2022-08-08T06:40:28.938Z,8.52
2022-08-08T06:43:09.459Z,8.75
2022-08-08T06:45:42.685Z,8.00
2022-08-08T06:48:10.165Z,8.48
2022-08-08T06:50:38.534Z,8.20
2022-08-08T06:53:09.911Z,7.93
2022-08-08T06:55:42.061Z,7.60
2022-08-08T06:58:09.744Z,8.55
2022-08-08T07:00:40.945Z,8.13
2022-08-08T07:03:52.779Z,7.57
2022-08-08T07:06:02.358Z,8.00
2022-08-08T07:08:37.218Z,7.43
2022-08-08T07:11:05.445Z,8.07
2022-08-08T07:14:00.097Z,7.10
2022-08-08T07:17:00.871Z,7.57
2022-08-08T07:19:42.049Z,8.43
2022-08-08T07:22:12.048Z,8.00
2022-08-08T07:24:52.884Z,7.28
2022-08-08T07:27:34.993Z,6.90
2022-08-08T07:30:13.952Z,7.35
2022-08-08T07:32:47.535Z,7.53
2022-08-08T07:35:17.919Z,6.97
2022-08-08T07:37:55.735Z,7.00
2022-08-08T07:40:33.113Z,6.13
2022-08-08T07:43:09.107Z,6.20
2022-08-08T07:45:51.526Z,6.68
2022-08-08T07:48:23.657Z,6.72
2022-08-08T07:50:52.438Z,6.85
2022-08-08T07:54:00.679Z,6.13
2022-08-08T07:56:37.137Z,6.40
2022-08-08T07:59:10.460Z,5.47
2022-08-08T08:02:35.904Z,6.13
2022-08-08T08:04:32.546Z,5.28
2022-08-08T08:07:02.527Z,6.40
2022-08-08T08:09:39.227Z,6.00
2022-08-08T08:12:07.164Z,5.80
2022-08-08T08:14:41.712Z,6.00
2022-08-08T08:17:09.714Z,6.85
2022-08-08T08:19:45.579Z,5.80
2022-08-08T08:22:12.697Z,5.47
2022-08-08T08:24:46.750Z,4.90
2022-08-08T08:27:13.464Z,5.47
2022-08-08T08:29:40.096Z,5.43
2022-08-08T08:32:12.221Z,4.95
2022-08-08T08:34:53.381Z,5.38
2022-08-08T08:37:25.869Z,4.80
2022-08-08T08:40:01.748Z,5.40
2022-08-08T08:42:35.522Z,5.65
2022-08-08T08:45:21.010Z,5.85
2022-08-08T08:47:53.250Z,5.38
2022-08-08T08:50:33.821Z,5.03
2022-08-08T08:53:55.067Z,5.10
2022-08-08T08:56:04.886Z,5.13
2022-08-08T08:58:32.990Z,4.78
2022-08-08T09:01:08.811Z,4.57
2022-08-08T09:03:47.354Z,4.65
2022-08-08T09:06:28.803Z,5.60
2022-08-08T09:09:25.935Z,5.13
2022-08-08T09:12:06.777Z,5.97
2022-08-08T09:14:35.370Z,4.80
2022-08-08T09:17:11.463Z,5.13
2022-08-08T09:21:58.407Z,4.78
2022-08-08T09:22:28.133Z,4.97
2022-08-08T09:24:56.260Z,4.57
2022-08-08T09:27:55.616Z,4.30
2022-08-08T09:30:17.440Z,4.60
2022-08-08T09:32:50.375Z,4.63
2022-08-08T09:35:38.547Z,5.10
2022-08-08T09:38:52.902Z,4.13
2022-08-08T09:41:55.087Z,4.65
2022-08-08T09:44:48.179Z,4.97
2022-08-08T09:48:02.165Z,4.63
2022-08-08T09:50:11.545Z,4.07
2022-08-08T09:53:10.321Z,4.65
2022-08-08T09:56:05.011Z,4.70
2022-08-08T09:58:27.879Z,4.82
2022-08-08T10:01:15.382Z,4.25
2022-08-08T10:04:02.137Z,4.30
2022-08-08T10:06:32.634Z,4.07
2022-08-08T10:08:59.979Z,4.47
2022-08-08T10:12:26.038Z,4.80
2022-08-08T10:14:28.428Z,4.10
2022-08-08T10:17:03.740Z,4.05
2022-08-08T10:19:58.618Z,3.08
2022-08-08T10:22:28.705Z,3.67
2022-08-08T10:25:02.377Z,4.10
2022-08-08T10:27:34.457Z,4.00
2022-08-08T10:30:05.187Z,4.50
2022-08-08T10:32:35.459Z,3.60
2022-08-08T10:36:06.899Z,4.50
2022-08-08T10:38:05.392Z,4.00
2022-08-08T10:40:33.127Z,3.90
2022-08-08T10:43:06.069Z,3.88
2022-08-08T10:45:56.079Z,3.60
2022-08-08T10:48:32.245Z,3.50
2022-08-08T10:51:00.099Z,3.53
2022-08-08T10:53:39.387Z,4.25
2022-08-08T10:56:27.708Z,3.40
2022-08-08T10:59:10.343Z,3.78
2022-08-08T11:01:46.922Z,4.22
2022-08-08T11:04:29.503Z,2.95
2022-08-08T11:07:01.809Z,3.50
2022-08-08T11:09:32.335Z,3.25
2022-08-08T11:12:06.409Z,3.30
2022-08-08T11:15:22.857Z,3.55
2022-08-08T11:17:59.445Z,2.90
2022-08-08T11:20:29.348Z,4.28
2022-08-08T11:22:59.069Z,3.55
2022-08-08T11:25:52.124Z,3.40
2022-08-08T11:28:22.954Z,2.92
2022-08-08T11:30:53.547Z,3.20
2022-08-08T11:33:51.403Z,3.45
2022-08-08T11:36:13.365Z,3.47
2022-08-08T11:38:55.599Z,2.97
2022-08-08T11:41:28.274Z,3.42
2022-08-08T11:44:00.384Z,3.47
2022-08-08T11:46:30.493Z,3.40
2022-08-08T11:49:00.135Z,3.25
2022-08-08T11:51:38.438Z,3.65
2022-08-08T11:54:27.138Z,3.40
2022-08-08T11:56:56.614Z,3.35
2022-08-08T11:59:58.592Z,3.50
2022-08-08T12:02:32.368Z,4.40
2022-08-08T12:05:02.076Z,5.15
2022-08-08T12:07:28.947Z,3.58
2022-08-08T12:09:59.586Z,3.45
2022-08-08T12:12:31.238Z,3.03
2022-08-08T12:15:02.373Z,3.40
2022-08-08T12:17:33.288Z,3.65
2022-08-08T12:20:05.854Z,3.78
2022-08-08T12:22:44.958Z,4.43
2022-08-08T12:25:20.497Z,3.63
2022-08-08T12:27:52.748Z,3.83
2022-08-08T12:30:32.402Z,3.38
2022-08-08T12:33:00.197Z,3.70
2022-08-08T12:35:33.524Z,3.58
2022-08-08T12:38:07.814Z,3.40
2022-08-08T12:40:55.949Z,3.28
2022-08-08T12:43:43.403Z,3.30
2022-08-08T12:46:19.371Z,3.80
2022-08-08T12:49:22.288Z,3.30
2022-08-08T12:51:58.383Z,3.28
2022-08-08T12:54:36.794Z,3.72
2022-08-08T12:57:38.292Z,3.05
2022-08-08T13:00:33.922Z,3.20
2022-08-08T13:03:05.760Z,3.20
2022-08-08T13:06:03.988Z,2.85
2022-08-08T13:08:21.899Z,2.75
2022-08-08T13:10:58.212Z,2.92
2022-08-08T13:13:28.474Z,3.38
2022-08-08T13:16:20.032Z,2.80
2022-08-08T13:18:57.516Z,2.72
2022-08-08T13:21:48.610Z,3.22
2022-08-08T13:24:18.803Z,2.80
2022-08-08T13:27:10.708Z,3.20
2022-08-08T13:29:52.929Z,3.85
2022-08-08T13:32:23.587Z,3.10
2022-08-08T13:34:54.939Z,3.13
2022-08-08T13:37:28.223Z,3.65
2022-08-08T13:40:10.614Z,3.35
2022-08-08T13:42:37.615Z,3.47
2022-08-08T13:45:09.909Z,2.83
2022-08-08T13:47:37.357Z,3.00
2022-08-08T13:50:39.876Z,2.95
2022-08-08T13:52:59.009Z,2.65
2022-08-08T13:55:36.373Z,2.47
2022-08-08T13:58:08.091Z,2.80
2022-08-08T14:00:45.094Z,3.03
2022-08-08T14:03:47.095Z,2.13
2022-08-08T14:06:09.096Z,2.88
2022-08-08T14:08:57.315Z,2.88
2022-08-08T14:11:28.316Z,3.13
2022-08-08T14:14:00.284Z,2.63
2022-08-08T14:16:27.783Z,3.13
2022-08-08T14:18:59.355Z,2.97
2022-08-08T14:21:40.086Z,3.00
2022-08-08T14:24:30.120Z,2.53
2022-08-08T14:26:56.705Z,2.50
2022-08-08T14:29:29.925Z,2.72
2022-08-08T14:32:12.721Z,3.03
2022-08-08T14:34:50.516Z,2.78
2022-08-08T14:37:18.368Z,2.70
2022-08-08T14:40:05.989Z,2.13
2022-08-08T14:42:54.509Z,2.72
2022-08-08T14:45:29.068Z,2.72
2022-08-08T14:48:11.318Z,2.80
2022-08-08T14:50:41.055Z,2.65
2022-08-08T14:53:13.521Z,2.63
2022-08-08T14:55:41.923Z,2.65
2022-08-08T14:58:12.013Z,2.53
2022-08-08T15:00:43.377Z,2.57
2022-08-08T15:03:15.676Z,2.78
2022-08-08T15:05:53.588Z,2.67
2022-08-08T15:08:35.280Z,2.65
2022-08-08T15:11:09.432Z,2.30
2022-08-08T15:14:01.025Z,2.50
2022-08-08T15:16:27.915Z,2.50
2022-08-08T15:18:54.895Z,2.70
2022-08-08T15:21:27.642Z,2.30
2022-08-08T15:23:56.748Z,2.55
2022-08-08T15:26:25.789Z,2.80
2022-08-08T15:28:55.127Z,2.70
2022-08-08T15:32:02.792Z,2.63
2022-08-08T15:34:28.771Z,2.60
2022-08-08T15:37:02.091Z,3.00
2022-08-08T15:39:39.072Z,2.58
2022-08-08T15:42:10.471Z,2.58
2022-08-08T16:08:23.143Z,2.80
2022-08-08T16:13:03.267Z,2.53
2022-08-08T16:13:46.407Z,2.70
2022-08-08T16:16:18.486Z,2.97
2022-08-08T16:18:56.828Z,2.50
2022-08-08T16:21:27.095Z,2.38
2022-08-08T16:23:55.336Z,2.58
2022-08-08T16:26:34.315Z,2.72
2022-08-08T16:29:09.084Z,2.47
2022-08-08T16:31:40.182Z,2.90
2022-08-08T16:34:06.770Z,2.60
2022-08-08T16:36:35.866Z,2.97
2022-08-08T16:39:09.724Z,3.05
2022-08-08T16:41:44.275Z,2.40
2022-08-08T16:44:17.913Z,2.90
2022-08-08T16:46:56.234Z,2.60
2022-08-08T16:49:23.133Z,2.78
2022-08-08T16:55:00.262Z,2.67
2022-08-08T16:55:04.482Z,3.00
2022-08-08T16:58:14.563Z,2.75
2022-08-08T17:00:26.954Z,3.70
2022-08-08T17:02:54.013Z,2.90
2022-08-08T17:05:20.517Z,2.80
2022-08-08T17:07:51.255Z,2.60
2022-08-08T17:10:19.180Z,2.50
2022-08-08T17:12:54.934Z,2.58
2022-08-08T17:15:22.986Z,2.40
2022-08-08T17:18:03.033Z,3.03
2022-08-08T17:20:31.880Z,2.50
2022-08-08T17:23:17.674Z,3.05
2022-08-08T17:25:52.412Z,2.95
2022-08-08T17:28:31.540Z,3.08
2022-08-08T17:31:39.165Z,3.10
2022-08-08T17:34:47.857Z,2.78
2022-08-08T17:36:36.471Z,2.58
2022-08-08T17:39:05.416Z,2.70
2022-08-08T17:41:58.107Z,2.90
2022-08-08T17:44:26.986Z,5.13
2022-08-08T17:46:56.882Z,2.55
2022-08-08T17:49:28.556Z,2.80
2022-08-08T17:52:05.601Z,2.80
2022-08-08T17:54:33.755Z,2.83
2022-08-08T17:57:03.806Z,2.90
2022-08-08T17:59:36.447Z,2.72
2022-08-08T18:02:18.566Z,2.83
2022-08-08T18:04:51.127Z,2.70
2022-08-08T18:08:01.098Z,3.10
2022-08-08T18:10:05.341Z,2.42
2022-08-08T18:12:31.833Z,2.60
2022-08-08T18:14:58.697Z,3.05
2022-08-08T18:17:28.460Z,2.53
2022-08-08T18:20:42.917Z,3.10
2022-08-08T18:22:51.064Z,2.65
2022-08-08T18:25:18.036Z,2.85
2022-08-08T18:27:45.716Z,2.78
2022-08-08T18:30:13.176Z,2.47
2022-08-08T18:32:42.190Z,2.97
2022-08-08T18:35:15.944Z,2.85
2022-08-08T18:37:48.409Z,2.50
2022-08-08T18:40:17.988Z,2.60
2022-08-08T18:42:45.607Z,2.78
2022-08-08T18:46:08.520Z,2.45
2022-08-08T18:48:07.801Z,2.70
2022-08-08T18:50:39.802Z,2.17
2022-08-08T18:53:17.177Z,2.63
2022-08-08T18:55:44.951Z,2.60
2022-08-08T18:58:13.639Z,2.80
2022-08-08T19:00:40.522Z,2.63
2022-08-08T19:03:13.545Z,2.38
2022-08-08T19:05:45.105Z,2.42
2022-08-08T19:08:25.114Z,2.58
2022-08-08T19:10:58.890Z,2.80
2022-08-08T19:13:53.098Z,2.95
2022-08-08T19:16:15.031Z,2.58
2022-08-08T19:18:51.825Z,2.47
2022-08-08T19:21:30.763Z,2.42
2022-08-08T19:24:05.752Z,2.80
2022-08-08T19:26:37.375Z,2.58
2022-08-08T19:29:05.312Z,2.22
2022-08-08T19:31:35.781Z,2.50
2022-08-08T19:34:29.902Z,2.28
2022-08-08T19:36:58.632Z,2.83
2022-08-08T19:39:34.964Z,2.80
2022-08-08T19:42:04.369Z,3.10
2022-08-08T19:44:45.324Z,2.80
2022-08-08T19:47:24.430Z,2.30
2022-08-08T19:49:59.663Z,3.20
2022-08-08T19:52:35.340Z,2.70
2022-08-08T19:55:11.346Z,2.67
2022-08-08T19:57:40.567Z,2.35
2022-08-08T20:00:11.546Z,2.80
2022-08-08T20:02:55.950Z,2.75
2022-08-08T20:06:14.629Z,3.15
2022-08-08T20:08:30.274Z,3.60
2022-08-08T20:10:56.339Z,3.10
2022-08-08T20:14:31.727Z,3.20
2022-08-08T20:16:13.535Z,3.15
2022-08-08T20:18:52.526Z,3.20
2022-08-08T20:21:23.265Z,2.63
2022-08-08T20:23:57.883Z,2.63
2022-08-08T20:26:27.585Z,3.05
2022-08-08T20:28:56.406Z,3.15
2022-08-08T20:31:22.921Z,2.75
2022-08-08T20:34:27.434Z,2.38
2022-08-08T20:36:38.547Z,2.58
2022-08-08T20:39:06.080Z,2.50
2022-08-08T20:41:33.818Z,2.10
2022-08-08T20:44:01.033Z,2.60
2022-08-08T20:46:27.719Z,2.55
2022-08-08T20:48:58.349Z,2.40
2022-08-08T20:51:32.322Z,2.60
2022-08-08T20:54:03.592Z,2.20
2022-08-08T20:57:04.622Z,2.70
2022-08-08T20:59:24.730Z,2.17
2022-08-08T21:02:06.251Z,2.75
2022-08-08T21:04:35.310Z,2.28
2022-08-08T21:07:04.974Z,2.65
2022-08-08T21:09:48.570Z,2.50
2022-08-08T21:12:32.164Z,2.40
2022-08-08T21:15:06.541Z,2.40
2022-08-08T21:17:34.476Z,2.28
2022-08-08T21:20:02.561Z,2.50
2022-08-08T21:22:30.466Z,2.40
2022-08-08T21:24:57.060Z,2.42
2022-08-08T21:28:05.886Z,2.30
2022-08-08T21:30:17.847Z,1.95
2022-08-08T21:32:51.121Z,2.40
2022-08-08T21:36:18.097Z,2.85
2022-08-08T21:38:16.300Z,3.25
2022-08-08T21:40:56.356Z,2.17
2022-08-08T21:43:34.183Z,2.65
2022-08-08T21:48:00.347Z,2.20
2022-08-08T21:48:55.482Z,2.05
2022-08-08T21:54:18.014Z,2.53
2022-08-08T21:54:35.768Z,1.88
2022-08-08T21:57:09.585Z,2.40
2022-08-08T22:00:02.958Z,2.10
2022-08-08T22:02:24.148Z,2.58
2022-08-08T22:04:55.994Z,2.47
2022-08-08T22:07:26.079Z,2.10
2022-08-08T22:10:01.463Z,2.50
2022-08-08T22:12:27.955Z,2.25
2022-08-08T22:14:54.453Z,2.28
2022-08-08T22:17:20.956Z,2.22
2022-08-08T22:20:11.429Z,2.50
2022-08-08T22:22:38.203Z,2.17
2022-08-08T22:25:19.890Z,2.53
2022-08-08T22:28:03.762Z,2.83
2022-08-08T22:30:33.594Z,2.40
2022-08-08T22:33:01.088Z,2.50
2022-08-08T22:36:05.577Z,2.30
2022-08-08T22:38:17.454Z,2.42
2022-08-08T22:40:45.114Z,2.30
2022-08-08T22:43:15.573Z,2.20
2022-08-08T22:45:43.510Z,2.22
2022-08-08T22:48:13.892Z,2.50
2022-08-08T22:50:40.579Z,2.80
2022-08-08T22:54:29.496Z,2.70
2022-08-08T22:55:58.660Z,2.13
2022-08-08T22:58:30.993Z,2.63
2022-08-08T23:01:00.071Z,2.75
2022-08-08T23:03:52.803Z,2.50
2022-08-08T23:06:16.138Z,2.28
2022-08-08T23:08:44.426Z,2.10
2022-08-08T23:11:21.657Z,2.75
2022-08-08T23:13:51.625Z,2.55
2022-08-08T23:16:38.946Z,2.40
2022-08-08T23:19:08.816Z,2.90
2022-08-08T23:21:38.793Z,3.08
2022-08-08T23:24:05.930Z,2.55
2022-08-08T23:26:34.020Z,2.90
2022-08-08T23:29:01.185Z,2.33
2022-08-08T23:31:27.740Z,2.53
2022-08-08T23:34:16.930Z,2.45
2022-08-08T23:36:40.852Z,2.50
2022-08-08T23:39:07.785Z,2.65
2022-08-08T23:41:45.915Z,2.33
2022-08-08T23:44:16.116Z,2.50
2022-08-08T23:49:02.733Z,2.85
2022-08-08T23:49:32.194Z,2.85
2022-08-08T23:52:07.135Z,2.70
2022-08-08T23:54:43.454Z,2.60
2022-08-08T23:57:38.760Z,2.20
